createdAt,value
2018-09-03T00:02:04.974Z,61.50
2018-09-03T00:06:55.874Z,61.60
2018-09-03T00:11:46.873Z,61.70
2018-09-03T00:16:37.794Z,61.70
2018-09-03T00:21:28.730Z,61.40
2018-09-03T00:26:20.360Z,61.50
2018-09-03T00:31:11.262Z,61.50
2018-09-03T00:41:36.024Z,61.40
2018-09-03T00:52:00.628Z,61.10
2018-09-03T00:56:52.262Z,61.30
2018-09-03T01:01:43.166Z,61.20
2018-09-03T01:06:34.083Z,61.20
2018-09-03T01:11:27.188Z,61.20
2018-09-03T01:16:18.079Z,61.30
2018-09-03T01:21:08.964Z,61.40
2018-09-03T01:25:59.856Z,61.40
2018-09-03T01:30:50.786Z,61.40
2018-09-03T01:35:41.686Z,61.40
2018-09-03T01:40:32.576Z,61.40
2018-09-03T01:45:23.474Z,62.00
2018-09-03T01:50:14.380Z,61.60
2018-09-03T01:55:06.997Z,62.40
2018-09-03T01:59:58.417Z,61.80
2018-09-03T02:04:49.791Z,61.80
2018-09-03T02:09:40.695Z,61.80
2018-09-03T02:14:32.477Z,61.80
2018-09-03T02:19:23.375Z,61.70
2018-09-03T02:24:14.304Z,62.00
2018-09-03T02:29:05.827Z,62.00
2018-09-03T02:33:57.626Z,61.90
2018-09-03T02:38:48.665Z,61.90
2018-09-03T02:43:39.568Z,62.50
2018-09-03T02:48:32.012Z,61.70
2018-09-03T02:53:23.353Z,61.60
2018-09-03T02:58:14.253Z,61.50
2018-09-03T03:03:05.581Z,61.50
2018-09-03T03:07:56.515Z,61.60
2018-09-03T03:12:47.557Z,61.60
2018-09-03T03:17:38.484Z,61.60
2018-09-03T03:22:29.375Z,61.60
2018-09-03T03:27:20.753Z,61.60
2018-09-03T03:32:12.391Z,61.50
2018-09-03T03:37:03.283Z,61.50
2018-09-03T03:41:54.961Z,61.60
2018-09-03T03:46:45.868Z,61.50
2018-09-03T03:51:36.772Z,61.50
2018-09-03T03:56:27.681Z,61.60
2018-09-03T04:01:19.821Z,61.70
2018-09-03T04:06:11.479Z,62.20
2018-09-03T04:11:02.441Z,61.50
2018-09-03T04:15:53.357Z,61.60
2018-09-03T04:20:44.292Z,61.60
2018-09-03T04:25:35.220Z,61.70
2018-09-03T04:30:26.141Z,61.60
2018-09-03T04:35:17.132Z,61.70
2018-09-03T04:40:08.899Z,61.60
2018-09-03T04:44:59.861Z,61.70
2018-09-03T04:49:51.514Z,61.80
2018-09-03T04:54:42.496Z,61.80
2018-09-03T04:59:33.415Z,61.80
2018-09-03T05:04:25.760Z,61.90
2018-09-03T05:09:16.664Z,62.00
2018-09-03T05:14:09.160Z,62.00
2018-09-03T05:19:01.909Z,61.90
2018-09-03T05:23:53.960Z,62.20
2018-09-03T05:28:44.860Z,62.20
2018-09-03T05:33:36.642Z,62.20
2018-09-03T05:38:28.355Z,62.20
2018-09-03T05:43:19.698Z,62.20
2018-09-03T05:48:10.512Z,62.30
2018-09-03T05:53:03.311Z,62.40
2018-09-03T05:57:54.526Z,62.50
2018-09-03T06:02:45.488Z,62.70
2018-09-03T06:07:36.392Z,62.60
2018-09-03T06:12:27.325Z,62.60
2018-09-03T06:17:19.805Z,62.60
2018-09-03T06:22:10.703Z,62.60
2018-09-03T06:27:02.659Z,62.60
2018-09-03T06:31:53.564Z,62.80
2018-09-03T06:36:44.471Z,62.80
2018-09-03T06:41:37.662Z,62.70
2018-09-03T06:46:28.576Z,62.70
2018-09-03T06:51:21.696Z,62.70
2018-09-03T06:56:12.603Z,62.70
2018-09-03T07:01:03.493Z,62.60
2018-09-03T07:05:54.407Z,62.60
2018-09-03T07:10:45.331Z,62.50
2018-09-03T07:15:39.361Z,62.80
2018-09-03T07:20:31.961Z,62.80
2018-09-03T07:25:22.980Z,62.90
2018-09-03T07:30:14.611Z,62.90
2018-09-03T07:35:05.580Z,62.90
2018-09-03T07:39:56.472Z,62.90
2018-09-03T07:44:47.409Z,63.00
2018-09-03T07:49:38.359Z,62.90
2018-09-03T07:54:29.276Z,63.00
2018-09-03T07:59:20.201Z,63.00
2018-09-03T08:04:11.106Z,63.00
2018-09-03T08:09:02.033Z,63.10
2018-09-03T08:13:54.724Z,63.00
2018-09-03T08:18:45.623Z,62.90
2018-09-03T08:23:36.517Z,62.90
2018-09-03T08:28:27.516Z,62.90
2018-09-03T08:33:19.209Z,62.80
2018-09-03T08:38:10.853Z,62.80
2018-09-03T08:43:01.793Z,62.80
2018-09-03T08:47:52.688Z,62.80
2018-09-03T08:52:43.617Z,62.90
2018-09-03T08:57:34.557Z,62.70
2018-09-03T09:02:26.193Z,62.60
2018-09-03T09:07:17.116Z,62.60
2018-09-03T09:12:08.094Z,62.50
2018-09-03T09:16:59.001Z,62.40
2018-09-03T09:21:49.884Z,62.20
2018-09-03T09:26:40.800Z,62.10
2018-09-03T09:31:31.751Z,62.00
2018-09-03T09:36:22.640Z,61.80
2018-09-03T09:41:13.553Z,61.80
2018-09-03T09:46:04.450Z,61.70
2018-09-03T09:50:56.097Z,61.70
2018-09-03T09:55:46.993Z,61.60
2018-09-03T10:00:38.684Z,61.50
2018-09-03T10:05:29.613Z,61.50
2018-09-03T10:10:20.522Z,61.30
2018-09-03T10:15:11.452Z,61.20
2018-09-03T10:20:02.364Z,61.00
2018-09-03T10:24:54.044Z,61.30
2018-09-03T10:29:44.932Z,60.70
2018-09-03T10:34:36.645Z,60.30
2018-09-03T10:39:27.553Z,60.20
2018-09-03T10:44:18.440Z,59.90
2018-09-03T10:49:09.338Z,59.50
2018-09-03T10:54:00.232Z,59.70
2018-09-03T10:58:51.145Z,58.90
2018-09-03T11:03:42.781Z,59.60
2018-09-03T11:08:33.688Z,58.70
2018-09-03T11:13:24.584Z,58.70
2018-09-03T11:18:15.493Z,58.50
2018-09-03T11:23:06.459Z,58.30
2018-09-03T11:27:57.351Z,57.60
2018-09-03T11:32:48.287Z,57.50
2018-09-03T11:37:39.190Z,57.20
2018-09-03T11:42:30.077Z,56.50
2018-09-03T11:47:21.021Z,56.10
2018-09-03T11:52:11.931Z,55.90
2018-09-03T11:57:03.564Z,54.30
2018-09-03T12:01:54.504Z,54.30
2018-09-03T12:06:45.457Z,53.40
2018-09-03T12:11:36.324Z,53.30
2018-09-03T12:16:27.216Z,53.20
2018-09-03T12:21:18.145Z,52.70
2018-09-03T12:26:09.786Z,52.10
2018-09-03T12:31:00.685Z,52.00
2018-09-03T12:35:52.340Z,51.30
2018-09-03T12:40:43.224Z,51.30
2018-09-03T12:45:34.852Z,51.90
2018-09-03T12:50:25.742Z,52.00
2018-09-03T12:55:16.651Z,51.80
2018-09-03T13:00:08.833Z,51.90
2018-09-03T13:05:00.117Z,51.80
2018-09-03T13:09:51.012Z,52.00
2018-09-03T13:14:41.937Z,52.00
2018-09-03T13:19:32.893Z,52.20
2018-09-03T13:24:23.775Z,52.40
2018-09-03T13:29:14.688Z,52.50
2018-09-03T13:34:05.576Z,52.90
2018-09-03T13:38:56.485Z,53.10
2018-09-03T13:43:47.380Z,53.00
2018-09-03T13:48:38.306Z,53.00
2018-09-03T13:53:29.260Z,52.80
2018-09-03T13:58:20.152Z,51.40
2018-09-03T14:03:11.803Z,52.10
2018-09-03T14:08:02.751Z,52.10
2018-09-03T14:12:53.681Z,52.10
2018-09-03T14:17:45.317Z,52.00
2018-09-03T14:22:36.787Z,52.00
2018-09-03T14:27:28.433Z,52.00
2018-09-03T14:32:21.772Z,52.30
2018-09-03T14:37:12.669Z,52.30
2018-09-03T14:42:03.701Z,52.10
2018-09-03T14:46:56.097Z,52.20
2018-09-03T14:51:48.114Z,52.50
2018-09-03T14:56:39.039Z,52.40
2018-09-03T15:01:31.653Z,52.10
2018-09-03T15:06:23.326Z,52.00
2018-09-03T15:11:14.228Z,52.00
2018-09-03T15:16:05.153Z,52.10
2018-09-03T15:20:56.056Z,51.90
2018-09-03T15:25:46.973Z,52.00
2018-09-03T15:30:38.321Z,52.10
2018-09-03T15:35:29.240Z,52.00
2018-09-03T15:40:20.877Z,52.00
2018-09-03T15:45:11.782Z,52.00
2018-09-03T15:50:02.741Z,52.30
2018-09-03T15:54:53.649Z,52.30
2018-09-03T15:59:44.580Z,52.30
2018-09-03T16:04:39.032Z,52.10
2018-09-03T16:09:30.281Z,52.40
2018-09-03T16:14:21.176Z,52.20
2018-09-03T16:19:12.080Z,52.00
2018-09-03T16:24:03.287Z,52.40
2018-09-03T16:28:54.181Z,52.60
2018-09-03T16:33:45.113Z,52.30
2018-09-03T16:38:38.188Z,52.50
2018-09-03T16:43:29.889Z,53.00
2018-09-03T16:48:20.792Z,52.60
2018-09-03T16:53:12.714Z,52.70
2018-09-03T16:58:05.181Z,52.40
2018-09-03T17:02:56.093Z,52.70
2018-09-03T17:07:47.824Z,53.20
2018-09-03T17:12:38.684Z,53.10
2018-09-03T17:17:29.589Z,52.80
2018-09-03T17:22:20.491Z,52.90
2018-09-03T17:27:12.649Z,52.90
2018-09-03T17:32:05.045Z,53.60
2018-09-03T17:36:55.960Z,53.50
2018-09-03T17:41:46.883Z,53.50
2018-09-03T17:46:37.824Z,54.40
2018-09-03T17:51:28.741Z,54.40
2018-09-03T17:56:20.414Z,55.00
2018-09-03T18:01:12.076Z,54.80
2018-09-03T18:06:05.018Z,54.70
2018-09-03T18:10:56.444Z,54.40
2018-09-03T18:15:47.360Z,54.70
2018-09-03T18:20:38.261Z,54.30
2018-09-03T18:25:29.163Z,54.80
2018-09-03T18:30:20.182Z,54.50
2018-09-03T18:35:11.722Z,54.60
2018-09-03T18:40:02.864Z,54.50
2018-09-03T18:44:53.765Z,54.60
2018-09-03T18:49:44.657Z,54.60
2018-09-03T18:54:36.354Z,54.90
2018-09-03T18:59:27.990Z,54.80
2018-09-03T19:04:18.873Z,54.80
2018-09-03T19:09:13.357Z,54.90
2018-09-03T19:14:05.039Z,55.00
2018-09-03T19:18:56.736Z,55.10
2018-09-03T19:23:47.627Z,55.00
2018-09-03T19:28:38.558Z,55.30
2018-09-03T19:33:30.197Z,55.90
2018-09-03T19:38:21.128Z,55.20
2018-09-03T19:43:12.853Z,55.50
2018-09-03T19:48:03.827Z,55.40
2018-09-03T19:52:55.521Z,55.50
2018-09-03T19:57:46.508Z,55.40
2018-09-03T20:02:38.321Z,55.60
2018-09-03T20:07:29.296Z,55.60
2018-09-03T20:12:22.089Z,55.80
2018-09-03T20:17:13.126Z,55.70
2018-09-03T20:22:04.029Z,55.80
2018-09-03T20:26:55.027Z,55.80
2018-09-03T20:31:45.964Z,55.90
2018-09-03T20:36:37.670Z,56.00
2018-09-03T20:41:28.637Z,56.00
2018-09-03T20:46:19.614Z,56.10
2018-09-03T20:51:12.403Z,56.20
2018-09-03T20:56:04.089Z,56.20
2018-09-03T21:00:55.785Z,56.30
2018-09-03T21:05:48.428Z,56.20
2018-09-03T21:10:39.483Z,56.40
2018-09-03T21:15:30.440Z,56.50
2018-09-03T21:20:22.105Z,56.40
2018-09-03T21:25:13.144Z,56.30
2018-09-03T21:30:04.090Z,56.50
2018-09-03T21:34:56.155Z,56.60
2018-09-03T21:39:47.049Z,56.60
2018-09-03T21:44:40.810Z,56.60
2018-09-03T21:49:31.720Z,56.50
2018-09-03T21:54:22.651Z,56.60
2018-09-03T21:59:13.555Z,56.60
2018-09-03T22:04:04.443Z,56.60
2018-09-03T22:08:55.371Z,56.80
2018-09-03T22:13:46.258Z,57.70
2018-09-03T22:18:37.176Z,56.90
2018-09-03T22:23:28.107Z,56.90
2018-09-03T22:28:19.028Z,56.90
2018-09-03T22:33:09.937Z,57.00
2018-09-03T22:38:00.880Z,57.00
2018-09-03T22:42:51.763Z,57.00
2018-09-03T22:47:42.684Z,57.00
2018-09-03T22:52:33.596Z,57.10
2018-09-03T22:57:24.503Z,57.10
2018-09-03T23:02:16.154Z,57.20
2018-09-03T23:07:07.064Z,57.10
2018-09-03T23:11:57.977Z,57.20
2018-09-03T23:16:48.872Z,57.30
2018-09-03T23:21:39.764Z,57.50
2018-09-03T23:26:30.654Z,57.60
2018-09-03T23:31:21.550Z,57.60
2018-09-03T23:36:12.444Z,57.40
2018-09-03T23:41:04.073Z,57.70
2018-09-03T23:45:54.984Z,57.70
2018-09-03T23:50:45.904Z,57.80
2018-09-03T23:55:36.800Z,57.80
